Terminal Aerodrome Forecast
Issued by NWS

Home | Current Version | Previous Version | Text Only | Print | Product List | Glossary On
Versions: 1 2 3 4 5 6 7 8 9 10 11 12 13 14 15
000
FTUS46 KSGX 172300
TAFSNA
TAF
KSNA 172321Z 1800/1824 24009KT P6SM SCT023 BKN250
     FM180400 18007KT P6SM OVC023
     FM182000 23009KT P6SM BKN025=

USA.gov is the U.S. government's official web portal to all federal, state and local government web resources and services.